Time;durP1;ratioP1;P1;durP2;ratioP2;P2;SDS_P1;SDS_P2;PMS_P1;PMS_P2;Temp;Humidity;BMP_temperature;BMP_pressure;BME280_temperature;BME280_humidity;BME280_pressure;Samples;Min_cycle;Max_cycle;Signal;HPM_P1;HPM_P2
2024/01/11 00:08:04;;;;;;;;;;;-0.70;99.90;;;;;;20904806;28;19924;-75
2024/01/11 00:18:06;;;;;;;;;;;-0.70;99.90;;;;;;20904468;28;19921;-75
2024/01/11 00:28:06;;;;;;;;;;;-0.80;99.90;;;;;;20903954;28;19916;-73
2024/01/11 00:38:07;;;;;;;;;;;-0.70;99.90;;;;;;20917433;28;19995;-75
2024/01/11 00:48:08;;;;;;;;;;;-0.80;99.90;;;;;;20917559;28;19916;-75
2024/01/11 00:58:08;;;;;;;;;;;-0.80;99.90;;;;;;20912378;28;19913;-75
2024/01/11 01:08:09;;;;;;;;;;;-0.80;99.90;;;;;;20915956;28;19916;-75
2024/01/11 01:18:09;;;;;;;;;;;-0.90;99.90;;;;;;20917476;28;20311;-76
2024/01/11 01:28:10;;;;;;;;;;;-0.90;99.90;;;;;;20915290;28;20421;-75
2024/01/11 01:38:12;;;;;;;;;;;-1.00;99.90;;;;;;20914115;28;19959;-75
2024/01/11 01:48:12;;;;;;;;;;;-1.00;99.90;;;;;;20912881;28;19967;-76
2024/01/11 01:58:13;;;;;;;;;;;-1.00;99.90;;;;;;20912348;28;19912;-76
2024/01/11 02:08:15;;;;;;;;;;;-1.00;99.90;;;;;;20905620;28;20291;-75
2024/01/11 02:18:16;;;;;;;;;;;-1.00;99.90;;;;;;20852051;28;19917;-76
2024/01/11 02:28:17;;;;;;;;;;;-1.00;99.90;;;;;;20909639;28;19970;-76
2024/01/11 02:38:18;;;;;;;;;;;-1.00;99.90;;;;;;20909506;28;20360;-76
2024/01/11 02:48:18;;;;;;;;;;;-1.10;99.90;;;;;;20909321;28;19917;-75
2024/01/11 02:58:19;;;;;;;;;;;-1.00;99.90;;;;;;20910929;28;19916;-76
2024/01/11 03:08:20;;;;;;;;;;;-1.10;99.90;;;;;;20907592;28;20411;-76
2024/01/11 03:18:21;;;;;;;;;;;-1.10;99.90;;;;;;20907252;28;20344;-76
2024/01/11 03:28:21;;;;;;;;;;;-1.20;99.90;;;;;;20906607;28;19944;-76
2024/01/11 03:38:22;;;;;;;;;;;-1.20;99.90;;;;;;20906252;28;19956;-76
2024/01/11 03:48:23;;;;;;;;;;;-1.20;99.90;;;;;;20905859;28;19956;-76
2024/01/11 03:58:23;;;;;;;;;;;-1.20;99.90;;;;;;20905222;28;19952;-76
2024/01/11 04:08:24;;;;;;;;;;;-1.30;99.90;;;;;;20914121;28;20407;-76
2024/01/11 04:18:24;;;;;;;;;;;-1.40;99.90;;;;;;20920117;28;19912;-76
2024/01/11 04:28:25;;;;;;;;;;;-1.40;99.90;;;;;;20923988;28;20294;-75
2024/01/11 04:38:26;;;;;;;;;;;-1.50;99.90;;;;;;20919341;28;19946;-76
2024/01/11 04:48:26;;;;;;;;;;;-1.60;99.90;;;;;;20918129;28;19970;-75
2024/01/11 04:58:27;;;;;;;;;;;-1.70;99.90;;;;;;20909117;28;20548;-76
2024/01/11 05:08:28;;;;;;;;;;;-1.80;99.90;;;;;;20908703;28;19948;-76
2024/01/11 05:18:29;;;;;;;;;;;-1.70;99.90;;;;;;20914654;28;19939;-75
2024/01/11 05:28:29;;;;;;;;;;;-1.80;99.90;;;;;;20897666;28;19916;-77
2024/01/11 05:38:30;;;;;;;;;;;-1.90;99.90;;;;;;20908856;28;19917;-76
2024/01/11 05:48:30;;;;;;;;;;;-2.00;99.90;;;;;;20911385;28;19921;-76
2024/01/11 05:58:31;;;;;;;;;;;-2.00;99.90;;;;;;20913304;28;19916;-76
2024/01/11 06:08:32;;;;;;;;;;;-2.00;99.90;;;;;;20912534;28;19917;-76
2024/01/11 06:18:32;;;;;;;;;;;-1.90;99.90;;;;;;20910847;28;19956;-76
2024/01/11 06:28:33;;;;;;;;;;;-2.00;99.90;;;;;;20909404;28;20307;-76
2024/01/11 06:38:33;;;;;;;;;;;-1.90;99.90;;;;;;20887865;28;19924;-78
2024/01/11 06:48:34;;;;;;;;;;;-1.90;99.90;;;;;;20898894;28;19924;-77
2024/01/11 06:58:35;;;;;;;;;;;-2.00;99.90;;;;;;20907496;28;19924;-75
2024/01/11 07:08:35;;;;;;;;;;;-2.10;99.90;;;;;;20907072;28;19923;-77
2024/01/11 07:18:36;;;;;;;;;;;-2.10;99.90;;;;;;20906791;28;19919;-76
2024/01/11 07:28:37;;;;;;;;;;;-2.10;99.90;;;;;;20906587;28;20000;-76
2024/01/11 07:38:37;;;;;;;;;;;-2.10;99.90;;;;;;20897122;28;19917;-74
2024/01/11 07:48:38;;;;;;;;;;;-2.10;99.90;;;;;;20922553;28;20368;-76
2024/01/11 07:58:40;;;;;;;;;;;-2.10;99.90;;;;;;20919937;28;19913;-75
2024/01/11 08:08:41;;;;;;;;;;;-2.00;99.90;;;;;;20918034;28;19923;-77
2024/01/11 08:18:42;;;;;;;;;;;-2.00;99.90;;;;;;20917929;28;19913;-77
2024/01/11 08:28:42;;;;;;;;;;;-2.00;99.90;;;;;;20919652;28;19917;-76
2024/01/11 08:38:43;;;;;;;;;;;-1.80;99.90;;;;;;20918142;28;19995;-76
2024/01/11 08:48:44;;;;;;;;;;;-1.60;99.90;;;;;;20917538;28;19924;-75
2024/01/11 08:58:44;;;;;;;;;;;-1.60;99.90;;;;;;20915535;28;19920;-76
2024/01/11 09:08:45;;;;;;;;;;;-1.30;99.90;;;;;;20919824;28;19920;-75
2024/01/11 09:18:46;;;;;;;;;;;-0.90;99.90;;;;;;20916212;28;19952;-75
2024/01/11 09:28:47;;;;;;;;;;;-0.60;99.90;;;;;;20894219;28;19943;-76
2024/01/11 09:38:48;;;;;;;;;;;-0.70;99.90;;;;;;20911871;28;19920;-77
2024/01/11 09:48:50;;;;;;;;;;;-0.90;99.90;;;;;;20913366;28;19921;-76
2024/01/11 09:58:50;;;;;;;;;;;-0.70;99.90;;;;;;20912642;28;20002;-76
2024/01/11 10:08:51;;;;;;;;;;;-1.20;99.90;;;;;;20911266;28;19916;-76
2024/01/11 10:18:55;;;;;;;;;;;-1.00;99.90;;;;;;20906691;28;20367;-75
2024/01/11 10:28:59;;;;;;;;;;;-1.00;99.90;;;;;;20908978;28;20472;-74
2024/01/11 10:39:01;;;;;;;;;;;-0.90;99.90;;;;;;20908699;28;19913;-74
2024/01/11 10:49:03;;;;;;;;;;;-0.80;99.90;;;;;;20909975;28;19916;-75
2024/01/11 10:59:04;;;;;;;;;;;-0.70;99.90;;;;;;20908188;28;20008;-76
2024/01/11 11:09:06;;;;;;;;;;;-0.60;99.90;;;;;;20908347;28;19920;-74
2024/01/11 11:19:07;;;;;;;;;;;-0.30;99.90;;;;;;20906462;28;19912;-75
2024/01/11 11:29:08;;;;;;;;;;;-0.20;99.90;;;;;;20906580;28;20015;-76
2024/01/11 11:39:13;;;;;;;;;;;0.20;99.90;;;;;;20907396;28;20281;-76
2024/01/11 11:49:14;;;;;;;;;;;0.30;99.90;;;;;;20907270;28;19960;-75
2024/01/11 11:59:14;;;;;;;;;;;0.00;99.90;;;;;;20899026;28;19913;-76
2024/01/11 12:09:18;;;;;;;;;;;-0.20;99.90;;;;;;20902320;28;19923;-75
2024/01/11 12:19:18;;;;;;;;;;;-0.10;99.90;;;;;;20898725;28;19914;-76
2024/01/11 12:29:19;;;;;;;;;;;-0.10;99.90;;;;;;20903915;28;19970;-77
2024/01/11 12:39:22;;;;;;;;;;;-0.50;99.90;;;;;;20902262;28;20364;-76
2024/01/11 12:49:22;;;;;;;;;;;-0.20;99.90;;;;;;20917283;28;19917;-76
2024/01/11 12:59:26;;;;;;;;;;;-0.20;99.90;;;;;;20910129;28;19996;-76
2024/01/11 13:09:28;;;;;;;;;;;-0.10;99.90;;;;;;20915837;28;19917;-75
2024/01/11 13:19:29;;;;;;;;;;;0.30;99.90;;;;;;20914814;28;19913;-75
2024/01/11 13:29:30;;;;;;;;;;;0.10;99.90;;;;;;20912738;28;20299;-74
2024/01/11 13:39:31;;;;;;;;;;;-0.20;99.90;;;;;;20904672;28;19913;-75
2024/01/11 13:49:33;;;;;;;;;;;0.10;99.90;;;;;;20912912;28;19923;-75
2024/01/11 13:59:34;;;;;;;;;;;0.20;99.90;;;;;;20913603;28;19912;-73
2024/01/11 14:09:34;;;;;;;;;;;0.00;99.90;;;;;;20912504;28;19923;-76
2024/01/11 14:19:35;;;;;;;;;;;-0.60;99.90;;;;;;20911167;28;20295;-75
2024/01/11 14:29:36;;;;;;;;;;;-0.50;99.90;;;;;;20909977;28;19927;-76
2024/01/11 14:39:36;;;;;;;;;;;-0.40;99.90;;;;;;20909263;28;19913;-75
2024/01/11 14:49:37;;;;;;;;;;;-0.30;99.90;;;;;;20907245;28;20020;-75
2024/01/11 14:59:38;;;;;;;;;;;-0.50;99.90;;;;;;20908186;28;19913;-76
2024/01/11 15:09:38;;;;;;;;;;;-0.60;99.90;;;;;;20907209;28;19924;-75
2024/01/11 15:19:39;;;;;;;;;;;-0.60;99.90;;;;;;20906462;28;20003;-76
2024/01/11 15:29:41;;;;;;;;;;;-0.60;99.90;;;;;;20904186;28;19917;-76
2024/01/11 15:39:42;;;;;;;;;;;-0.80;99.90;;;;;;20908347;28;19913;-76
2024/01/11 15:49:42;;;;;;;;;;;-1.10;99.90;;;;;;20898153;28;19923;-75
2024/01/11 15:59:43;;;;;;;;;;;-1.30;99.90;;;;;;20907405;28;19967;-76
2024/01/11 16:09:44;;;;;;;;;;;-1.50;99.90;;;;;;20920091;28;19932;-76
2024/01/11 16:19:45;;;;;;;;;;;-1.50;99.90;;;;;;20912960;28;19913;-76
2024/01/11 16:29:45;;;;;;;;;;;-1.70;99.90;;;;;;20919008;28;20291;-75
2024/01/11 16:39:46;;;;;;;;;;;-1.60;99.90;;;;;;20916132;28;19924;-74
2024/01/11 16:49:47;;;;;;;;;;;-1.60;99.90;;;;;;20852840;28;20274;-75
2024/01/11 16:59:47;;;;;;;;;;;-1.70;99.90;;;;;;20882519;28;19959;-75
2024/01/11 17:09:48;;;;;;;;;;;-1.60;99.90;;;;;;20885731;28;19956;-75
2024/01/11 17:19:49;;;;;;;;;;;-1.60;99.90;;;;;;20864809;28;20012;-74
2024/01/11 17:29:49;;;;;;;;;;;-1.60;99.90;;;;;;20903969;28;19923;-75
2024/01/11 17:39:50;;;;;;;;;;;-1.60;99.90;;;;;;20905534;28;19955;-76
2024/01/11 17:49:51;;;;;;;;;;;-1.50;99.90;;;;;;20902287;28;19928;-74
2024/01/11 17:59:52;;;;;;;;;;;-1.50;99.90;;;;;;20903997;28;19917;-75
2024/01/11 18:09:53;;;;;;;;;;;-1.60;99.90;;;;;;20903730;28;20391;-75
2024/01/11 18:19:54;;;;;;;;;;;-1.50;99.90;;;;;;20891670;28;19917;-75
2024/01/11 18:29:55;;;;;;;;;;;-1.60;99.90;;;;;;20902210;28;20364;-76
2024/01/11 18:39:56;;;;;;;;;;;-1.60;99.90;;;;;;20902254;28;19966;-76
2024/01/11 18:49:56;;;;;;;;;;;-1.60;99.90;;;;;;20894533;28;19932;-73
2024/01/11 18:59:58;;;;;;;;;;;-1.50;99.90;;;;;;20893341;28;19916;-75
2024/01/11 19:09:59;;;;;;;;;;;-1.60;99.90;;;;;;20893133;28;19924;-74
2024/01/11 19:20:00;;;;;;;;;;;-1.60;99.90;;;;;;20896815;28;19917;-74
2024/01/11 19:30:07;;;;;;;;;;;-1.70;99.90;;;;;;20898142;28;19974;-74
2024/01/11 19:40:08;;;;;;;;;;;-1.50;99.90;;;;;;20905782;28;20363;-74
2024/01/11 19:50:09;;;;;;;;;;;-1.50;99.90;;;;;;20910770;28;19925;-76
2024/01/11 20:00:09;;;;;;;;;;;-1.80;99.90;;;;;;20914797;28;20342;-75
2024/01/11 20:10:13;;;;;;;;;;;-2.00;99.90;;;;;;20917317;28;20375;-76
2024/01/11 20:20:14;;;;;;;;;;;-2.10;99.90;;;;;;20912425;28;19984;-74
2024/01/11 20:30:14;;;;;;;;;;;-2.10;99.90;;;;;;20918807;28;19917;-74
2024/01/11 20:40:16;;;;;;;;;;;-2.20;99.90;;;;;;20912890;28;19996;-76
2024/01/11 20:50:17;;;;;;;;;;;-2.20;99.90;;;;;;20916835;28;20411;-74
2024/01/11 21:00:18;;;;;;;;;;;-2.40;99.90;;;;;;20917708;28;19975;-75
2024/01/11 21:10:19;;;;;;;;;;;-2.50;99.90;;;;;;20907746;28;19967;-75
2024/01/11 21:20:20;;;;;;;;;;;-2.50;99.90;;;;;;20862285;28;19913;-74
2024/01/11 21:30:20;;;;;;;;;;;-2.60;99.90;;;;;;20843042;28;19917;-75
2024/01/11 21:40:21;;;;;;;;;;;-2.80;99.90;;;;;;20851118;28;19920;-76
2024/01/11 21:50:22;;;;;;;;;;;-3.00;99.90;;;;;;20858374;28;19963;-74
2024/01/11 22:00:22;;;;;;;;;;;-3.00;99.90;;;;;;20899901;28;19920;-77
2024/01/11 22:10:23;;;;;;;;;;;-3.20;99.90;;;;;;20910694;28;19958;-77
2024/01/11 22:20:24;;;;;;;;;;;-3.50;99.90;;;;;;20891760;28;19951;-75
2024/01/11 22:30:24;;;;;;;;;;;-3.60;99.90;;;;;;20895560;28;19923;-78
2024/01/11 22:40:25;;;;;;;;;;;-3.70;99.90;;;;;;20901773;28;19940;-77
2024/01/11 22:50:26;;;;;;;;;;;-3.80;99.90;;;;;;20900778;28;19916;-77
2024/01/11 23:00:27;;;;;;;;;;;-3.90;99.90;;;;;;20909122;28;19917;-77
2024/01/11 23:10:28;;;;;;;;;;;-4.10;99.90;;;;;;20886013;28;20371;-76
2024/01/11 23:20:28;;;;;;;;;;;-4.30;99.90;;;;;;20907405;28;19912;-75
2024/01/11 23:30:33;;;;;;;;;;;-4.30;99.90;;;;;;20909190;28;20294;-75
2024/01/11 23:40:34;;;;;;;;;;;-4.30;99.90;;;;;;20906659;28;20426;-75
2024/01/11 23:50:35;;;;;;;;;;;-4.30;99.90;;;;;;20878578;28;19917;-76
